Flight Track Log - Related Links

Times and Time Zones

All times are in EDT time to prevent confusion due to time zone crossing. See the ASQ6115 flight status page for this flight to view local times or setup timezone preferences in your user account.

Time Position Orientation Groundspeed Altitude Reporting Facility
EDT Latitude Longitude Course Direction KTS MPH feet Rate Location/Type
Fri 09:36:30 PM 43.1631 -89.2392 110° East 240 276 6,900  Level Chicago Center
Fri 09:37:00 PM 42.9383 -89.2486 164° South  Level FlightAware Approximate
Fri 09:37:31 PM 43.0825 -89.2194 170° South 254 292 9,300  Level Chicago Center
Fri 09:38:00 PM 42.8739 -89.2239 144° Southeast  Level FlightAware Approximate
Fri 09:38:33 PM 42.9989 -89.2022 171° South 295 339 10,900  Level Chicago Center
Fri 09:39:00 PM 42.8090 -89.1981 170° South  Level FlightAware Approximate
Fri 09:39:35 PM 42.8989 -89.1800 171° South 354 407 11,000  Level Chicago Center
Fri 09:40:00 PM 42.7421 -89.1800 163° South  Level FlightAware Approximate
Fri 09:40:36 PM 42.7911 -89.1572 171° South 385 443 11,000  Level Chicago Center
Fri 09:41:38 PM 42.6861 -89.1342 171° South 384 442 11,000  Level Chicago Center
Fri 09:42:40 PM 42.5833 -89.1000 166° South 382 440 11,000  Level Chicago Center
Fri 09:43:41 PM 42.5125 -88.9614 125° Southeast 398 458 11,000  Level Chicago Center
Fri 09:44:43 PM 42.4728 -88.8269 112° Southeast 388 447 11,000 -439 Level Chicago Center
Fri 09:45:44 PM 42.4322 -88.6925 112° Southeast 385 443 10,100 -488 Descending Chicago Center
Fri 09:46:46 PM 42.3939 -88.5661 112° Southeast 372 428 10,000 -49 Descending Chicago Center
Fri 09:47:47 PM 42.3556 -88.4350 112° Southeast 373 429 10,000  Level Chicago Center
Fri 09:48:49 PM 42.2989 -88.3200 124° Southeast 368 423 10,000  Level Chicago Center
Fri 09:49:51 PM 42.2344 -88.2119 129° Southeast 370 426 10,000 -341 Level Chicago Center
Fri 09:50:52 PM 42.1733 -88.1214 132° Southeast 330 380 9,300 -1,415 Descending Chicago Center
Fri 09:51:54 PM 42.1014 -88.0319 137° Southeast 297 342 7,100 -1,453 Descending Chicago Center
Fri 09:52:27 PM 42.1000 -87.9667 92° East 293 337 7,000 -69 Descending Chicago TRACON
Fri 09:53:21 PM 42.1000 -87.8667 90° East 295 339 7,000  Level Chicago TRACON
Fri 09:54:21 PM 42.0833 -87.7667 103° East 286 329 7,000 -1,000 Level Chicago TRACON
Fri 09:55:21 PM 42.0833 -87.6667 90° East 286 329 5,000 -1,381 Descending Chicago TRACON
Fri 09:56:27 PM 42.0667 -87.5500 101° East 249 287 4,100 -500 Descending Chicago TRACON
Fri 09:57:21 PM 42.0833 -87.4833 71° East 212 244 4,000 -50 Descending Chicago TRACON
Fri 09:58:27 PM 42.0333 -87.4333 143° Southeast 211 243 4,000  Level Chicago TRACON
Fri 09:59:27 PM 41.9833 -87.4500 194° South 179 206 4,000  Level Chicago TRACON
Fri 10:00:28 PM 41.9833 -87.5000 270° West 138 159 4,000  Level Chicago TRACON
Fri 10:01:22 PM 41.9833 -87.5333 270° West 153 176 4,000  Level Chicago TRACON
Fri 10:02:22 PM 41.9833 -87.6000 270° West 147 169 4,000  Level Chicago TRACON
Fri 10:03:22 PM 41.9833 -87.6500 270° West 149 171 4,000 -250 Level Chicago TRACON
Fri 10:04:22 PM 41.9833 -87.7000 270° West 151 174 3,500 -650 Descending Chicago TRACON
Fri 10:05:22 PM 41.9833 -87.7667 270° West 147 169 2,700 -850 Descending Chicago TRACON
Fri 10:06:22 PM 41.9833 -87.8167 270° West 139 160 1,800 -900 Descending Chicago TRACON

Login

Don't have an account? Register now (free) for customized features, flight alerts, and more!